sensor_id;sensor_type;location;lat;lon;timestamp;pressure;altitude;pressure_sealevel;temperature;humidity
45441;BME280;31189;38.790;-77.084;2023-02-27T00:00:48;100893.43;;;12.67;43.28
45441;BME280;31189;38.790;-77.084;2023-02-27T00:03:16;100892.87;;;11.41;45.36
45441;BME280;31189;38.790;-77.084;2023-02-27T00:05:44;100892.19;;;10.82;48.02
45441;BME280;31189;38.790;-77.084;2023-02-27T00:08:12;100901.43;;;12.20;45.47
45441;BME280;31189;38.790;-77.084;2023-02-27T00:10:40;100916.00;;;12.85;44.00
45441;BME280;31189;38.790;-77.084;2023-02-27T00:13:08;100918.71;;;12.19;44.34
45441;BME280;31189;38.790;-77.084;2023-02-27T00:15:36;100917.78;;;12.18;44.50
45441;BME280;31189;38.790;-77.084;2023-02-27T00:18:04;100920.25;;;12.50;44.41
45441;BME280;31189;38.790;-77.084;2023-02-27T00:20:33;100924.60;;;11.82;45.57
45441;BME280;31189;38.790;-77.084;2023-02-27T00:23:01;100927.30;;;12.14;45.09
45441;BME280;31189;38.790;-77.084;2023-02-27T00:25:28;100927.79;;;11.57;46.19
45441;BME280;31189;38.790;-77.084;2023-02-27T00:27:57;100928.15;;;11.96;46.21
45441;BME280;31189;38.790;-77.084;2023-02-27T00:30:25;100930.78;;;11.63;46.16
45441;BME280;31189;38.790;-77.084;2023-02-27T00:32:53;100932.80;;;11.74;46.65
45441;BME280;31189;38.790;-77.084;2023-02-27T00:35:22;100936.78;;;11.88;45.96
45441;BME280;31189;38.790;-77.084;2023-02-27T00:37:50;100934.57;;;11.33;46.37
45441;BME280;31189;38.790;-77.084;2023-02-27T00:40:18;100930.86;;;11.53;46.56
45441;BME280;31189;38.790;-77.084;2023-02-27T00:42:46;100936.60;;;11.75;45.41
45441;BME280;31189;38.790;-77.084;2023-02-27T00:45:14;100938.00;;;11.57;45.95
45441;BME280;31189;38.790;-77.084;2023-02-27T00:47:42;100933.42;;;11.42;46.50
45441;BME280;31189;38.790;-77.084;2023-02-27T00:50:11;100930.70;;;11.10;47.09
45441;BME280;31189;38.790;-77.084;2023-02-27T00:52:39;100926.75;;;10.67;48.11
45441;BME280;31189;38.790;-77.084;2023-02-27T00:55:08;100924.37;;;10.86;48.04
45441;BME280;31189;38.790;-77.084;2023-02-27T00:57:37;100924.06;;;10.56;48.87
45441;BME280;31189;38.790;-77.084;2023-02-27T01:00:07;100915.61;;;10.10;50.72
45441;BME280;31189;38.790;-77.084;2023-02-27T01:02:35;100911.80;;;10.21;50.19
45441;BME280;31189;38.790;-77.084;2023-02-27T01:05:03;100907.71;;;10.49;50.31
45441;BME280;31189;38.790;-77.084;2023-02-27T01:07:31;100904.50;;;10.21;50.46
45441;BME280;31189;38.790;-77.084;2023-02-27T01:09:58;100903.93;;;9.90;49.68
45441;BME280;31189;38.790;-77.084;2023-02-27T01:12:26;100898.45;;;9.98;48.67
45441;BME280;31189;38.790;-77.084;2023-02-27T01:14:54;100896.73;;;9.39;47.16
45441;BME280;31189;38.790;-77.084;2023-02-27T01:17:23;100901.19;;;9.10;46.57
45441;BME280;31189;38.790;-77.084;2023-02-27T01:19:50;100908.26;;;8.49;47.59
45441;BME280;31189;38.790;-77.084;2023-02-27T01:22:18;100913.24;;;9.22;45.15
45441;BME280;31189;38.790;-77.084;2023-02-27T01:24:45;100917.88;;;8.93;45.33
45441;BME280;31189;38.790;-77.084;2023-02-27T01:27:13;100922.59;;;9.34;43.54
45441;BME280;31189;38.790;-77.084;2023-02-27T01:29:40;100927.30;;;10.46;41.89
45441;BME280;31189;38.790;-77.084;2023-02-27T01:32:08;100928.29;;;10.87;39.83
45441;BME280;31189;38.790;-77.084;2023-02-27T01:34:37;100935.65;;;10.30;40.19
45441;BME280;31189;38.790;-77.084;2023-02-27T01:37:05;100938.82;;;10.34;39.68
45441;BME280;31189;38.790;-77.084;2023-02-27T01:39:33;100946.31;;;10.80;38.32
45441;BME280;31189;38.790;-77.084;2023-02-27T01:42:01;100954.83;;;11.57;37.04
45441;BME280;31189;38.790;-77.084;2023-02-27T01:44:33;100958.75;;;11.83;35.57
45441;BME280;31189;38.790;-77.084;2023-02-27T01:47:28;100964.73;;;10.98;36.52
45441;BME280;31189;38.790;-77.084;2023-02-27T01:49:56;100964.22;;;10.19;38.06
45441;BME280;31189;38.790;-77.084;2023-02-27T01:52:24;100972.49;;;10.87;37.19
45441;BME280;31189;38.790;-77.084;2023-02-27T01:54:53;100973.24;;;11.69;36.32
45441;BME280;31189;38.790;-77.084;2023-02-27T01:57:22;100975.13;;;10.32;39.74
45441;BME280;31189;38.790;-77.084;2023-02-27T01:59:50;100981.35;;;11.47;36.29
45441;BME280;31189;38.790;-77.084;2023-02-27T02:02:22;100986.82;;;12.34;34.79
45441;BME280;31189;38.790;-77.084;2023-02-27T02:04:54;100990.74;;;11.74;35.03
45441;BME280;31189;38.790;-77.084;2023-02-27T02:07:23;100995.50;;;12.36;33.71
45441;BME280;31189;38.790;-77.084;2023-02-27T02:09:53;101002.15;;;11.56;38.40
45441;BME280;31189;38.790;-77.084;2023-02-27T02:12:25;101008.70;;;12.18;38.18
45441;BME280;31189;38.790;-77.084;2023-02-27T02:14:54;101012.60;;;12.17;37.61
45441;BME280;31189;38.790;-77.084;2023-02-27T02:17:31;101013.67;;;12.36;37.66
45441;BME280;31189;38.790;-77.084;2023-02-27T02:20:27;101016.66;;;11.96;37.79
45441;BME280;31189;38.790;-77.084;2023-02-27T02:25:14;101025.83;;;11.51;38.41
45441;BME280;31189;38.790;-77.084;2023-02-27T02:27:55;101025.78;;;11.03;38.56
45441;BME280;31189;38.790;-77.084;2023-02-27T02:30:58;101025.35;;;10.07;39.11
45441;BME280;31189;38.790;-77.084;2023-02-27T02:34:11;101025.93;;;9.64;39.65
45441;BME280;31189;38.790;-77.084;2023-02-27T02:38:38;101018.28;;;10.43;37.30
45441;BME280;31189;38.790;-77.084;2023-02-27T02:41:16;101020.75;;;9.23;38.56
45441;BME280;31189;38.790;-77.084;2023-02-27T02:43:56;101017.18;;;8.22;39.65
45441;BME280;31189;38.790;-77.084;2023-02-27T02:46:34;101010.67;;;8.15;39.57
45441;BME280;31189;38.790;-77.084;2023-02-27T02:49:13;101008.80;;;8.31;39.42
45441;BME280;31189;38.790;-77.084;2023-02-27T02:51:48;101002.21;;;8.78;38.38
45441;BME280;31189;38.790;-77.084;2023-02-27T02:54:25;101007.52;;;8.56;37.71
45441;BME280;31189;38.790;-77.084;2023-02-27T02:57:01;101008.62;;;9.11;38.31
45441;BME280;31189;38.790;-77.084;2023-02-27T02:59:36;101008.20;;;8.85;38.05
45441;BME280;31189;38.790;-77.084;2023-02-27T03:02:08;101004.50;;;9.35;36.98
45441;BME280;31189;38.790;-77.084;2023-02-27T03:04:40;101005.52;;;8.70;36.63
45441;BME280;31189;38.790;-77.084;2023-02-27T03:07:12;101004.06;;;9.35;37.45
45441;BME280;31189;38.790;-77.084;2023-02-27T03:09:44;101005.43;;;10.23;35.86
45441;BME280;31189;38.790;-77.084;2023-02-27T03:12:18;101009.15;;;9.19;35.71
45441;BME280;31189;38.790;-77.084;2023-02-27T03:14:49;101018.05;;;10.01;34.79
45441;BME280;31189;38.790;-77.084;2023-02-27T03:17:24;101025.76;;;10.48;33.57
45441;BME280;31189;38.790;-77.084;2023-02-27T03:19:57;101033.95;;;10.30;32.61
45441;BME280;31189;38.790;-77.084;2023-02-27T03:22:30;101038.18;;;9.12;34.49
45441;BME280;31189;38.790;-77.084;2023-02-27T03:25:01;101039.93;;;10.80;32.85
45441;BME280;31189;38.790;-77.084;2023-02-27T03:27:36;101049.38;;;11.43;31.50
45441;BME280;31189;38.790;-77.084;2023-02-27T03:30:08;101051.70;;;11.45;30.70
45441;BME280;31189;38.790;-77.084;2023-02-27T03:32:42;101057.48;;;12.25;30.17
45441;BME280;31189;38.790;-77.084;2023-02-27T03:35:14;101062.72;;;12.20;30.16
45441;BME280;31189;38.790;-77.084;2023-02-27T03:37:51;101064.34;;;12.15;29.76
45441;BME280;31189;38.790;-77.084;2023-02-27T03:40:26;101068.67;;;12.30;29.97
45441;BME280;31189;38.790;-77.084;2023-02-27T03:43:00;101073.31;;;10.98;30.67
45441;BME280;31189;38.790;-77.084;2023-02-27T03:45:32;101070.82;;;10.88;30.10
45441;BME280;31189;38.790;-77.084;2023-02-27T03:48:03;101073.13;;;11.06;30.40
45441;BME280;31189;38.790;-77.084;2023-02-27T03:50:32;101078.38;;;11.63;30.27
45441;BME280;31189;38.790;-77.084;2023-02-27T03:53:01;101072.17;;;12.06;29.95
45441;BME280;31189;38.790;-77.084;2023-02-27T03:55:34;101071.06;;;10.38;32.13
45441;BME280;31189;38.790;-77.084;2023-02-27T03:58:05;101067.63;;;11.19;31.54
45441;BME280;31189;38.790;-77.084;2023-02-27T04:00:33;101066.96;;;9.94;33.00
45441;BME280;31189;38.790;-77.084;2023-02-27T04:03:02;101061.39;;;10.54;33.41
45441;BME280;31189;38.790;-77.084;2023-02-27T04:05:31;101061.95;;;10.29;33.64
45441;BME280;31189;38.790;-77.084;2023-02-27T04:08:17;101067.30;;;10.56;33.31
45441;BME280;31189;38.790;-77.084;2023-02-27T04:11:00;101068.11;;;10.04;34.21
45441;BME280;31189;38.790;-77.084;2023-02-27T04:13:43;101075.03;;;8.94;33.50
45441;BME280;31189;38.790;-77.084;2023-02-27T04:16:49;101078.37;;;9.04;35.34
45441;BME280;31189;38.790;-77.084;2023-02-27T04:19:39;101075.85;;;9.59;33.86
45441;BME280;31189;38.790;-77.084;2023-02-27T04:22:23;101078.71;;;9.28;34.34
45441;BME280;31189;38.790;-77.084;2023-02-27T04:24:57;101074.38;;;9.95;34.40
45441;BME280;31189;38.790;-77.084;2023-02-27T04:27:35;101067.42;;;10.60;33.22
45441;BME280;31189;38.790;-77.084;2023-02-27T04:30:14;101063.00;;;11.36;32.33
45441;BME280;31189;38.790;-77.084;2023-02-27T04:32:50;101057.88;;;11.26;32.42
45441;BME280;31189;38.790;-77.084;2023-02-27T04:35:25;101055.12;;;11.37;32.52
45441;BME280;31189;38.790;-77.084;2023-02-27T04:37:58;101053.71;;;11.21;32.96
45441;BME280;31189;38.790;-77.084;2023-02-27T04:40:33;101051.86;;;11.77;32.53
45441;BME280;31189;38.790;-77.084;2023-02-27T04:43:05;101057.96;;;11.67;32.43
45441;BME280;31189;38.790;-77.084;2023-02-27T04:45:35;101057.28;;;11.70;32.07
45441;BME280;31189;38.790;-77.084;2023-02-27T04:48:08;101062.12;;;12.23;31.73
45441;BME280;31189;38.790;-77.084;2023-02-27T04:50:40;101064.97;;;11.96;31.46
45441;BME280;31189;38.790;-77.084;2023-02-27T04:53:15;101064.35;;;12.38;31.19
45441;BME280;31189;38.790;-77.084;2023-02-27T04:55:48;101065.46;;;12.17;31.20
45441;BME280;31189;38.790;-77.084;2023-02-27T04:58:21;101069.70;;;12.42;30.89
45441;BME280;31189;38.790;-77.084;2023-02-27T05:00:54;101072.08;;;12.01;30.85
45441;BME280;31189;38.790;-77.084;2023-02-27T05:03:26;101078.64;;;12.72;30.59
45441;BME280;31189;38.790;-77.084;2023-02-27T05:05:59;101080.69;;;11.88;31.26
45441;BME280;31189;38.790;-77.084;2023-02-27T05:08:33;101081.16;;;11.63;31.36
45441;BME280;31189;38.790;-77.084;2023-02-27T05:11:06;101083.81;;;12.14;31.34
45441;BME280;31189;38.790;-77.084;2023-02-27T05:13:40;101081.06;;;11.34;32.37
45441;BME280;31189;38.790;-77.084;2023-02-27T05:16:16;101086.36;;;12.33;31.77
45441;BME280;31189;38.790;-77.084;2023-02-27T05:18:47;101086.21;;;12.26;31.97
45441;BME280;31189;38.790;-77.084;2023-02-27T05:21:22;101079.63;;;11.31;32.63
45441;BME280;31189;38.790;-77.084;2023-02-27T05:24:02;101081.42;;;11.52;32.41
45441;BME280;31189;38.790;-77.084;2023-02-27T05:26:45;101087.10;;;12.08;32.52
45441;BME280;31189;38.790;-77.084;2023-02-27T05:29:24;101090.94;;;11.06;34.00
45441;BME280;31189;38.790;-77.084;2023-02-27T05:31:59;101092.84;;;11.32;34.02
45441;BME280;31189;38.790;-77.084;2023-02-27T05:34:35;101091.69;;;10.75;34.11
45441;BME280;31189;38.790;-77.084;2023-02-27T05:37:11;101098.24;;;11.26;33.98
45441;BME280;31189;38.790;-77.084;2023-02-27T05:39:42;101103.24;;;10.57;35.49
45441;BME280;31189;38.790;-77.084;2023-02-27T05:42:14;101107.04;;;10.56;35.39
45441;BME280;31189;38.790;-77.084;2023-02-27T05:44:48;101109.86;;;9.95;36.04
45441;BME280;31189;38.790;-77.084;2023-02-27T05:47:22;101113.31;;;10.03;36.11
45441;BME280;31189;38.790;-77.084;2023-02-27T05:49:56;101116.35;;;10.14;36.10
45441;BME280;31189;38.790;-77.084;2023-02-27T05:52:27;101117.39;;;9.99;36.16
45441;BME280;31189;38.790;-77.084;2023-02-27T05:55:00;101122.60;;;10.46;35.73
45441;BME280;31189;38.790;-77.084;2023-02-27T05:57:34;101122.45;;;8.92;37.17
45441;BME280;31189;38.790;-77.084;2023-02-27T06:00:09;101127.63;;;8.94;38.26
45441;BME280;31189;38.790;-77.084;2023-02-27T06:02:43;101128.55;;;9.51;38.05
45441;BME280;31189;38.790;-77.084;2023-02-27T06:05:14;101133.26;;;10.06;37.64
45441;BME280;31189;38.790;-77.084;2023-02-27T06:07:42;101130.78;;;9.56;37.71
45441;BME280;31189;38.790;-77.084;2023-02-27T06:10:14;101135.02;;;9.89;37.28
45441;BME280;31189;38.790;-77.084;2023-02-27T06:12:42;101133.72;;;9.71;36.80
45441;BME280;31189;38.790;-77.084;2023-02-27T06:15:11;101135.12;;;9.95;36.50
45441;BME280;31189;38.790;-77.084;2023-02-27T06:17:39;101133.89;;;9.82;36.78
45441;BME280;31189;38.790;-77.084;2023-02-27T06:20:09;101133.09;;;9.91;36.81
45441;BME280;31189;38.790;-77.084;2023-02-27T06:22:37;101129.24;;;9.84;36.50
45441;BME280;31189;38.790;-77.084;2023-02-27T06:25:06;101123.60;;;10.32;36.36
45441;BME280;31189;38.790;-77.084;2023-02-27T06:27:35;101122.67;;;9.69;37.29
45441;BME280;31189;38.790;-77.084;2023-02-27T06:30:03;101117.79;;;10.43;36.65
45441;BME280;31189;38.790;-77.084;2023-02-27T06:32:31;101122.02;;;9.82;36.57
45441;BME280;31189;38.790;-77.084;2023-02-27T06:34:59;101126.88;;;10.55;36.64
45441;BME280;31189;38.790;-77.084;2023-02-27T06:37:27;101135.62;;;9.62;37.89
45441;BME280;31189;38.790;-77.084;2023-02-27T06:39:55;101135.71;;;9.87;37.31
45441;BME280;31189;38.790;-77.084;2023-02-27T06:42:24;101146.32;;;10.08;38.84
45441;BME280;31189;38.790;-77.084;2023-02-27T06:44:52;101155.87;;;8.73;39.71
45441;BME280;31189;38.790;-77.084;2023-02-27T06:47:20;101166.09;;;9.75;39.27
45441;BME280;31189;38.790;-77.084;2023-02-27T06:49:49;101168.05;;;9.42;39.82
45441;BME280;31189;38.790;-77.084;2023-02-27T06:52:17;101166.45;;;9.53;39.91
45441;BME280;31189;38.790;-77.084;2023-02-27T06:54:44;101163.93;;;9.34;40.07
45441;BME280;31189;38.790;-77.084;2023-02-27T06:57:12;101155.86;;;8.80;40.89
45441;BME280;31189;38.790;-77.084;2023-02-27T06:59:39;101154.62;;;8.58;41.09
45441;BME280;31189;38.790;-77.084;2023-02-27T07:02:06;101157.49;;;8.29;41.50
45441;BME280;31189;38.790;-77.084;2023-02-27T07:04:34;101151.31;;;7.67;42.55
45441;BME280;31189;38.790;-77.084;2023-02-27T07:07:02;101143.50;;;8.40;42.02
45441;BME280;31189;38.790;-77.084;2023-02-27T07:09:30;101137.55;;;7.60;42.80
45441;BME280;31189;38.790;-77.084;2023-02-27T07:11:58;101139.52;;;8.43;42.74
45441;BME280;31189;38.790;-77.084;2023-02-27T07:14:27;101141.42;;;8.41;42.16
45441;BME280;31189;38.790;-77.084;2023-02-27T07:16:54;101142.05;;;8.26;42.67
45441;BME280;31189;38.790;-77.084;2023-02-27T07:19:23;101145.83;;;8.63;42.73
45441;BME280;31189;38.790;-77.084;2023-02-27T07:21:51;101144.37;;;8.36;42.35
45441;BME280;31189;38.790;-77.084;2023-02-27T07:24:19;101141.75;;;8.35;42.80
45441;BME280;31189;38.790;-77.084;2023-02-27T07:26:47;101144.26;;;8.33;42.93
45441;BME280;31189;38.790;-77.084;2023-02-27T07:29:15;101147.11;;;8.94;42.43
45441;BME280;31189;38.790;-77.084;2023-02-27T07:31:43;101144.09;;;8.25;42.89
45441;BME280;31189;38.790;-77.084;2023-02-27T07:34:11;101148.51;;;8.00;43.38
45441;BME280;31189;38.790;-77.084;2023-02-27T07:36:39;101149.76;;;8.04;43.66
45441;BME280;31189;38.790;-77.084;2023-02-27T07:39:07;101147.47;;;8.06;44.04
45441;BME280;31189;38.790;-77.084;2023-02-27T07:41:35;101155.89;;;8.48;43.30
45441;BME280;31189;38.790;-77.084;2023-02-27T07:44:03;101157.90;;;8.31;43.64
45441;BME280;31189;38.790;-77.084;2023-02-27T07:46:32;101152.13;;;7.74;43.48
45441;BME280;31189;38.790;-77.084;2023-02-27T07:49:00;101153.23;;;8.58;43.07
45441;BME280;31189;38.790;-77.084;2023-02-27T07:51:28;101154.48;;;7.19;44.04
45441;BME280;31189;38.790;-77.084;2023-02-27T07:53:56;101159.84;;;8.54;43.11
45441;BME280;31189;38.790;-77.084;2023-02-27T07:56:25;101161.43;;;8.12;43.63
45441;BME280;31189;38.790;-77.084;2023-02-27T07:58:54;101168.15;;;8.18;43.85
45441;BME280;31189;38.790;-77.084;2023-02-27T08:01:22;101172.35;;;8.24;43.86
45441;BME280;31189;38.790;-77.084;2023-02-27T08:03:50;101173.18;;;8.32;43.78
45441;BME280;31189;38.790;-77.084;2023-02-27T08:06:17;101177.70;;;7.78;44.47
45441;BME280;31189;38.790;-77.084;2023-02-27T08:08:45;101194.30;;;7.65;44.87
45441;BME280;31189;38.790;-77.084;2023-02-27T08:11:13;101194.59;;;7.04;46.14
45441;BME280;31189;38.790;-77.084;2023-02-27T08:13:40;101194.32;;;7.18;46.00
45441;BME280;31189;38.790;-77.084;2023-02-27T08:16:08;101192.15;;;7.81;44.66
45441;BME280;31189;38.790;-77.084;2023-02-27T08:18:37;101191.32;;;8.02;44.60
45441;BME280;31189;38.790;-77.084;2023-02-27T08:21:05;101188.34;;;7.14;45.60
45441;BME280;31189;38.790;-77.084;2023-02-27T08:23:33;101189.88;;;8.66;43.06
45441;BME280;31189;38.790;-77.084;2023-02-27T08:26:01;101185.70;;;7.89;43.90
45441;BME280;31189;38.790;-77.084;2023-02-27T08:28:29;101187.23;;;7.05;44.93
45441;BME280;31189;38.790;-77.084;2023-02-27T08:30:58;101194.36;;;6.89;46.49
45441;BME280;31189;38.790;-77.084;2023-02-27T08:33:26;101199.32;;;6.94;46.42
45441;BME280;31189;38.790;-77.084;2023-02-27T08:35:53;101200.38;;;7.63;46.17
45441;BME280;31189;38.790;-77.084;2023-02-27T08:38:21;101207.94;;;7.45;46.58
45441;BME280;31189;38.790;-77.084;2023-02-27T08:40:50;101210.32;;;6.74;47.13
45441;BME280;31189;38.790;-77.084;2023-02-27T08:43:19;101209.74;;;7.61;46.01
45441;BME280;31189;38.790;-77.084;2023-02-27T08:45:47;101204.66;;;7.50;45.93
45441;BME280;31189;38.790;-77.084;2023-02-27T08:48:16;101204.12;;;8.01;45.04
45441;BME280;31189;38.790;-77.084;2023-02-27T08:50:45;101202.17;;;7.91;44.74
45441;BME280;31189;38.790;-77.084;2023-02-27T08:53:13;101208.18;;;7.32;46.03
45441;BME280;31189;38.790;-77.084;2023-02-27T08:55:41;101219.26;;;6.78;47.50
45441;BME280;31189;38.790;-77.084;2023-02-27T08:58:10;101221.52;;;6.47;48.17
45441;BME280;31189;38.790;-77.084;2023-02-27T09:00:38;101219.89;;;6.49;48.54
45441;BME280;31189;38.790;-77.084;2023-02-27T09:03:06;101215.17;;;6.54;48.61
45441;BME280;31189;38.790;-77.084;2023-02-27T09:05:34;101210.64;;;6.84;48.14
45441;BME280;31189;38.790;-77.084;2023-02-27T09:08:03;101202.45;;;6.84;48.31
45441;BME280;31189;38.790;-77.084;2023-02-27T09:10:31;101202.23;;;7.25;46.59
45441;BME280;31189;38.790;-77.084;2023-02-27T09:13:00;101202.56;;;6.89;47.98
45441;BME280;31189;38.790;-77.084;2023-02-27T09:15:28;101205.45;;;6.46;47.86
45441;BME280;31189;38.790;-77.084;2023-02-27T09:17:55;101203.06;;;6.46;48.87
45441;BME280;31189;38.790;-77.084;2023-02-27T09:20:24;101205.61;;;6.83;48.42
45441;BME280;31189;38.790;-77.084;2023-02-27T09:22:52;101208.62;;;6.20;49.72
45441;BME280;31189;38.790;-77.084;2023-02-27T09:25:21;101214.87;;;6.42;49.29
45441;BME280;31189;38.790;-77.084;2023-02-27T09:27:49;101221.99;;;6.69;48.59
45441;BME280;31189;38.790;-77.084;2023-02-27T09:30:17;101230.96;;;6.36;49.26
45441;BME280;31189;38.790;-77.084;2023-02-27T09:32:45;101231.67;;;6.17;50.75
45441;BME280;31189;38.790;-77.084;2023-02-27T09:35:13;101235.62;;;6.05;50.62
45441;BME280;31189;38.790;-77.084;2023-02-27T09:37:42;101241.30;;;5.69;51.34
45441;BME280;31189;38.790;-77.084;2023-02-27T09:40:14;101242.43;;;6.08;51.27
45441;BME280;31189;38.790;-77.084;2023-02-27T09:42:45;101246.41;;;6.56;49.95
45441;BME280;31189;38.790;-77.084;2023-02-27T09:45:20;101246.00;;;5.93;50.58
45441;BME280;31189;38.790;-77.084;2023-02-27T09:47:51;101250.15;;;6.29;49.47
45441;BME280;31189;38.790;-77.084;2023-02-27T09:50:32;101251.60;;;6.38;49.89
45441;BME280;31189;38.790;-77.084;2023-02-27T09:53:03;101253.76;;;6.36;50.23
45441;BME280;31189;38.790;-77.084;2023-02-27T09:55:33;101260.92;;;6.13;50.52
45441;BME280;31189;38.790;-77.084;2023-02-27T09:58:05;101262.62;;;6.02;50.47
45441;BME280;31189;38.790;-77.084;2023-02-27T10:00:44;101257.58;;;6.18;50.36
45441;BME280;31189;38.790;-77.084;2023-02-27T10:03:29;101253.98;;;6.41;50.49
45441;BME280;31189;38.790;-77.084;2023-02-27T10:06:14;101259.27;;;6.51;49.42
45441;BME280;31189;38.790;-77.084;2023-02-27T10:08:49;101261.94;;;6.74;49.05
45441;BME280;31189;38.790;-77.084;2023-02-27T10:11:23;101261.98;;;7.26;47.81
45441;BME280;31189;38.790;-77.084;2023-02-27T10:13:58;101268.93;;;6.88;48.13
45441;BME280;31189;38.790;-77.084;2023-02-27T10:16:29;101268.50;;;6.73;47.57
45441;BME280;31189;38.790;-77.084;2023-02-27T10:19:02;101271.51;;;6.77;47.92
45441;BME280;31189;38.790;-77.084;2023-02-27T10:21:35;101273.24;;;5.57;51.17
45441;BME280;31189;38.790;-77.084;2023-02-27T10:24:11;101265.59;;;6.21;49.02
45441;BME280;31189;38.790;-77.084;2023-02-27T10:26:44;101267.24;;;6.40;48.70
45441;BME280;31189;38.790;-77.084;2023-02-27T10:29:16;101271.34;;;6.27;49.44
45441;BME280;31189;38.790;-77.084;2023-02-27T10:31:46;101274.19;;;6.86;47.64
45441;BME280;31189;38.790;-77.084;2023-02-27T10:34:16;101276.56;;;5.83;49.11
45441;BME280;31189;38.790;-77.084;2023-02-27T10:36:46;101268.03;;;6.07;49.13
45441;BME280;31189;38.790;-77.084;2023-02-27T10:39:15;101263.89;;;6.20;48.94
45441;BME280;31189;38.790;-77.084;2023-02-27T10:41:45;101267.42;;;5.62;50.45
45441;BME280;31189;38.790;-77.084;2023-02-27T10:44:15;101271.57;;;5.82;50.06
45441;BME280;31189;38.790;-77.084;2023-02-27T10:46:43;101262.69;;;6.29;49.59
45441;BME280;31189;38.790;-77.084;2023-02-27T10:49:15;101258.17;;;6.85;48.51
45441;BME280;31189;38.790;-77.084;2023-02-27T10:51:43;101267.29;;;5.38;51.16
45441;BME280;31189;38.790;-77.084;2023-02-27T10:54:18;101274.51;;;6.76;48.26
45441;BME280;31189;38.790;-77.084;2023-02-27T10:56:49;101275.73;;;6.38;49.08
45441;BME280;31189;38.790;-77.084;2023-02-27T10:59:20;101278.26;;;6.25;49.95
45441;BME280;31189;38.790;-77.084;2023-02-27T11:01:52;101278.88;;;5.60;51.32
45441;BME280;31189;38.790;-77.084;2023-02-27T11:04:27;101271.68;;;5.33;52.77
45441;BME280;31189;38.790;-77.084;2023-02-27T11:06:56;101272.49;;;6.52;48.17
45441;BME280;31189;38.790;-77.084;2023-02-27T11:09:26;101271.71;;;6.00;48.92
45441;BME280;31189;38.790;-77.084;2023-02-27T11:11:55;101272.72;;;6.65;48.34
45441;BME280;31189;38.790;-77.084;2023-02-27T11:14:48;101282.93;;;6.05;49.41
45441;BME280;31189;38.790;-77.084;2023-02-27T11:17:23;101279.95;;;5.99;49.89
45441;BME280;31189;38.790;-77.084;2023-02-27T11:19:52;101271.07;;;6.72;48.35
45441;BME280;31189;38.790;-77.084;2023-02-27T11:22:21;101265.12;;;6.37;48.55
45441;BME280;31189;38.790;-77.084;2023-02-27T11:24:51;101269.66;;;6.37;48.55
45441;BME280;31189;38.790;-77.084;2023-02-27T11:27:22;101260.62;;;6.53;48.89
45441;BME280;31189;38.790;-77.084;2023-02-27T11:29:59;101253.32;;;6.06;49.44
45441;BME280;31189;38.790;-77.084;2023-02-27T11:32:35;101258.63;;;6.12;49.52
45441;BME280;31189;38.790;-77.084;2023-02-27T11:35:21;101263.45;;;6.37;49.43
45441;BME280;31189;38.790;-77.084;2023-02-27T11:37:51;101268.75;;;6.40;49.87
45441;BME280;31189;38.790;-77.084;2023-02-27T11:40:21;101267.45;;;6.89;48.78
45441;BME280;31189;38.790;-77.084;2023-02-27T11:42:51;101267.94;;;6.27;49.56
45441;BME280;31189;38.790;-77.084;2023-02-27T11:45:26;101274.38;;;5.99;49.29
45441;BME280;31189;38.790;-77.084;2023-02-27T11:47:58;101270.05;;;6.57;48.20
45441;BME280;31189;38.790;-77.084;2023-02-27T11:51:16;101262.38;;;6.32;49.83
45441;BME280;31189;38.790;-77.084;2023-02-27T11:54:05;101268.24;;;5.68;51.51
45441;BME280;31189;38.790;-77.084;2023-02-27T11:56:37;101277.54;;;5.13;52.28
45441;BME280;31189;38.790;-77.084;2023-02-27T11:59:16;101278.29;;;5.71;51.88
45441;BME280;31189;38.790;-77.084;2023-02-27T12:01:52;101270.02;;;6.09;50.76
45441;BME280;31189;38.790;-77.084;2023-02-27T12:04:27;101273.71;;;6.03;51.32
45441;BME280;31189;38.790;-77.084;2023-02-27T12:07:00;101277.14;;;5.73;53.24
45441;BME280;31189;38.790;-77.084;2023-02-27T12:09:38;101274.84;;;5.72;51.22
45441;BME280;31189;38.790;-77.084;2023-02-27T12:12:14;101264.68;;;5.95;51.84
45441;BME280;31189;38.790;-77.084;2023-02-27T12:14:53;101251.35;;;6.17;51.12
45441;BME280;31189;38.790;-77.084;2023-02-27T12:17:29;101250.45;;;5.85;51.58
45441;BME280;31189;38.790;-77.084;2023-02-27T12:20:08;101245.63;;;6.88;50.45
45441;BME280;31189;38.790;-77.084;2023-02-27T12:22:47;101251.03;;;7.27;48.94
45441;BME280;31189;38.790;-77.084;2023-02-27T12:25:30;101253.54;;;7.26;48.93
45441;BME280;31189;38.790;-77.084;2023-02-27T12:28:07;101258.86;;;6.62;50.32
45441;BME280;31189;38.790;-77.084;2023-02-27T12:30:44;101250.77;;;6.80;49.23
45441;BME280;31189;38.790;-77.084;2023-02-27T12:33:20;101251.01;;;7.46;48.65
45441;BME280;31189;38.790;-77.084;2023-02-27T12:36:00;101260.24;;;7.45;48.59
45441;BME280;31189;38.790;-77.084;2023-02-27T12:38:30;101265.53;;;6.52;50.56
45441;BME280;31189;38.790;-77.084;2023-02-27T12:41:09;101279.76;;;7.28;50.77
45441;BME280;31189;38.790;-77.084;2023-02-27T12:43:44;101285.14;;;7.35;50.94
45441;BME280;31189;38.790;-77.084;2023-02-27T12:46:26;101284.78;;;7.52;50.57
45441;BME280;31189;38.790;-77.084;2023-02-27T12:49:05;101288.54;;;7.87;49.11
45441;BME280;31189;38.790;-77.084;2023-02-27T12:51:46;101294.82;;;7.93;48.55
45441;BME280;31189;38.790;-77.084;2023-02-27T12:54:25;101294.33;;;7.96;48.63
45441;BME280;31189;38.790;-77.084;2023-02-27T12:57:05;101291.84;;;8.20;48.30
45441;BME280;31189;38.790;-77.084;2023-02-27T12:59:54;101289.95;;;8.06;49.18
45441;BME280;31189;38.790;-77.084;2023-02-27T13:02:38;101299.73;;;8.85;48.86
45441;BME280;31189;38.790;-77.084;2023-02-27T13:05:17;101300.63;;;7.51;51.96